Tiempo atmosférico en la estación meteorológica de Caravaca de La Cruz, Murcia (643 m.)



Fecha
DESCASC
Temp. máxima en grados centígrados (hora)
DESCASC
Temp. mínima en grados centígrados (hora)
DESCASC
Temp. media en grados centígrados
DESCASC
Racha de viento máxima en m/sg (hora)
DESCASC
Velocidad máxima media en intervalos de 10 minutos(hora)
DESCASC
Precipitaciones diarias en mm
DESCASC
Precipitaciones de 00:00 a 06:00 en mm
DESCASC
Precipitaciones de 06:00 a 12:00 en mm
DESCASC
Precipitaciones de 12:00 a 18:00 en mm
DESCASC
Precipitaciones de 18:00 a 24:00 en mm
DESCASC
20-10-2019 17.9 (05:40) 8 (23:59) 12.9 9.17 (10:10) 5.56 (05:50) 0.6 0.4 0 0.2 0
19-10-2019 26.7 (16:10) 9.9 (06:30) 18.3 10.83 (13:20) 5 (13:20) 0 0 0 0 0
18-10-2019 25.5 (15:00) 11.4 (06:30) 18.4 7.22 (04:00) 5 (00:20) 0 0 0 0 0
17-10-2019 24.4 (15:30) 8.2 (00:00) 16.3 7.78 (08:00) 5 (08:00) 0 0 0 0 0
16-10-2019 22.6 (15:20) 6.1 (00:00) 14.4 6.39 (06:10) 4.72 (05:00) 0 0 0 0 0
15-10-2019 20.6 (14:20) 6.6 (00:00) 13.6 8.61 (01:30) 4.17 (02:40) 0 0 0 0 0
14-10-2019 25.9 (17:20) 10.9 (00:00) 18.4 9.72 (20:10) 5 (17:30) 0 0 0 0 0
13-10-2019 27.5 (15:20) 14.5 (00:00) 21 8.06 (15:30) 3.61 (17:30) 0 0 0 0 0
12-10-2019 22.9 (17:00) 11.3 (00:00) 17.1 3.89 (07:10) 2.5 (07:00) 0 0 0 0 0
11-10-2019 25.2 (15:10) 14 (00:00) 19.6 5.28 (14:20) 2.78 (14:20) 0 0 0 0 0
10-10-2019 24.5 (15:30) 15.3 (00:00) 19.9 6.11 (17:20) 3.06 (17:50) 0 0 0 0 0
09-10-2019 27.6 (16:00) 12.6 (00:00) 20.1 6.11 (14:30) 2.78 (14:20) 0 0 0 0 0
08-10-2019 27.4 (14:30) 13.4 (00:00) 20.4 6.39 (11:00) 3.33 (10:50) 0 0 0 0 0
07-10-2019 30.8 (14:30) 13.4 (00:00) 22.1 9.17 (15:20) 3.89 (14:10) 0 0 0 0 0
06-10-2019 29.6 (15:10) 12.3 (00:00) 21 7.5 (07:30) 4.72 (04:40) 0 0 0 0 0
05-10-2019 29.2 (14:20) 12 (00:00) 20.6 7.5 (05:20) 5.28 (08:40) 0 0 0 0 0
04-10-2019 29.3 (13:50) 11.3 (00:00) 20.3 7.78 (07:20) 5 (02:10) 0 0 0 0 0
03-10-2019 27.4 (16:30) 10.1 (00:00) 18.8 6.39 (09:20) 4.72 (00:50) 0.2 0 0 0.2 0
02-10-2019 28.5 (16:50) 11.8 (00:00) 20.2 6.94 (17:20) 3.33 (17:30) 0 0 0 0 0
01-10-2019 31.3 (14:50) 13.1 (00:00) 22.2 7.5 (14:40) 4.72 (06:20) 0 0 0 0 0
30-09-2019 30.9 (15:50) 13.2 (00:00) 22 7.22 (00:50) 5 (08:10) 0 0 0 0 0
29-09-2019 29.8 (16:30) 12.8 (00:00) 21.3 6.67 (08:30) 4.17 (08:30) 0 0 0 0 0
28-09-2019 28.5 (15:10) 13.2 (00:00) 20.8 6.94 (16:10) 4.72 (08:20) 0 0 0 0 0
27-09-2019 29.6 (15:00) 13.6 (00:00) 21.6 6.11 (08:10) 3.33 (08:20) 0 0 0 0 0
26-09-2019 27.2 (14:00) 13.2 (00:00) 20.2 6.11 (16:40) 4.17 (06:50) 0 0 0 0 0
25-09-2019 29.1 (15:00) 12.7 (00:00) 20.9 6.39 (17:50) 4.17 (01:00) 0 0 0 0 0
24-09-2019 30 (16:00) 12.4 (00:00) 21.2 6.67 (07:10) 4.72 (07:10) 0 0 0 0 0
23-09-2019 26 (15:40) 11.6 (00:00) 18.8 5.28 (17:20) 2.78 (17:20) 0 0 0 0 0
22-09-2019 28.1 (13:50) 15.8 (00:00) 22 5.28 (15:20) 3.33 (10:00) 0 0 0 0 0

Gráficas

Temp. máximas Temp. mínimas Temp. medias Precipitaciones Rachas de viento máximas Velocidades máximas media en intervalos de 10 minutos

Datos horarios

Fecha y hora oficial Temperatura (ºC) Velocidad del viento (km/h) Dirección del viento Racha (km/h) Dirección de racha Precipitación (mm) Presión (hPa) Tendencia (hPa) Humedad (%)
2019-10-21 23:00:00 8.8 2 Noroeste 8 Noroeste 0 943.1 0.4 78
2019-10-21 22:00:00 10.2 4 Noroeste 12 Noroeste 0 942.7 0.5 73
2019-10-21 21:00:00 10.7 5 Noroeste 9 Norte 0 942.5 0.4 72
2019-10-21 20:00:00 11.6 4 Norte 10 Este 0 942.7 0.8 69
2019-10-21 19:00:00 14.1 2 Nordeste 18 Este 0 942.2 0.3 59
2019-10-21 18:00:00 15.1 10 Este 19 Nordeste 0 942.1 -0.1 53
2019-10-21 17:00:00 16.5 9 Este 21 Este 0 941.9 -0.9 48
2019-10-21 16:00:00 16.8 8 Este 22 Este 0 941.9 -1.5 47
2019-10-21 15:00:00 17.7 7 Sudeste 24 Este 0 942.2 -1.4 44
2019-10-21 14:00:00 17.6 10 Este 18 Este 0 942.8 -0.6 44
2019-10-21 13:00:00 16.7 8 Este 17 Este 0 943.4 0.1 47
2019-10-21 12:00:00 16 7 Este 14 Este 0 943.6 0.7 46
2019-10-21 11:00:00 14.1 4 Este 12 Sudoeste 0 943.4 1.1 51
2019-10-21 10:00:00 10.1 6 Sudoeste 18 Oeste 0 943.3 1.2 64
2019-10-21 09:00:00 5.5 6 Oeste 14 Sudoeste 0 942.9 1.1 80
2019-10-21 08:00:00 5.4 6 Oeste 19 Oeste 0 942.3 0.3 79
2019-10-21 07:00:00 5.9 12 Oeste 19 Oeste 0 942.1 -0.2 76
2019-10-21 06:00:00 5.9 10 Oeste 23 Oeste 0 941.8 -0.5 75
2019-10-21 05:00:00 6.2 15 Oeste 23 Sudoeste 0 942 -0.5 75
2019-10-21 04:00:00 6.8 15 Oeste 24 Oeste 0 942.3 0 72
2019-10-21 03:00:00 8 10 Sudoeste 18 Oeste 0 942.3 0.3 68
2019-10-21 02:00:00 8.1 9 Oeste 20 Oeste 0 942.5 1 68
2019-10-21 01:00:00 8.4 12 Oeste 18 Oeste 0 942.3 1.5 67
2019-10-21 00:00:00 8.1 7 Sur 13 Noroeste 0 942 1.7 70
2019-10-20 23:00:00 10.2 6 Noroeste 13 Oeste 0 941.5 1.7 59
2019-10-20 22:00:00 10.5 3 Norte 14 Noroeste 0 940.8 2.2 58
2019-10-20 21:00:00 11.8 5 Noroeste 17 Oeste 0 940.3 2.5 52
2019-10-20 20:00:00 13 9 Oeste 23 Oeste 0 939.8 2.5 46
2019-10-20 19:00:00 15.5 10 Oeste 29 Oeste 0 938.6 1.5 35
2019-10-20 18:00:00 16.8 2 Sudoeste 15 Este 0 937.8 0.7 53
2019-10-20 17:00:00 16.5 11 Este 17 Nordeste 0 937.3 0.2 57
2019-10-20 16:00:00 16.7 5 Norte 11 Este 0 937.1 0.9 54
2019-10-20 15:00:00 15.7 6 Sudoeste 17 Sur 0 937.1 0.4 59
2019-10-20 14:00:00 15.2 7 Sudoeste 20 Sudoeste 0 937.1 0.4 60
2019-10-20 13:00:00 14.3 6 Sudoeste 22 Oeste 0.2 936.2 -0.4 65
2019-10-20 12:00:00 13.5 12 Sudoeste 27 Sudoeste 0 936.7 0.7 66
2019-10-20 11:00:00 13.1 13 Oeste 33 Sudoeste 0 936.7 1.7 66
2019-10-20 10:00:00 13.5 13 Sudoeste 29 Oeste 0 936.6 1.8 69
2019-10-20 09:00:00 13.4 14 Sudoeste 31 Oeste 0 936 1.5 70
2019-10-20 08:00:00 14 9 Sudoeste 27 Oeste 0 935 1.9 57
2019-10-20 07:00:00 13.2 11 Oeste 23 Sudoeste 0 934.8 1.5 70
2019-10-20 06:00:00 15.7 10 Oeste 31 Oeste 0.4 934.5 0.1 77
2019-10-20 05:00:00 16.8 7 Sudoeste 17 Sudoeste 0 933.1 -1.3 60
2019-10-20 04:00:00 16.1 11 Sur 16 Sur 0 933.3 -1.2 63
2019-10-20 03:00:00 16.3 10 Sudoeste 21 Sudoeste 0 934.4 -0.5 62
2019-10-20 02:00:00 16.4 14 Sudoeste 27 Sudoeste 0 934.4 -0.5 60
2019-10-20 01:00:00 16.3 14 Sudoeste 21 Sudoeste 0 934.5 -0.3 58
2019-10-20 00:00:00 16.8 13 Sudoeste 23 Sudoeste 0 934.9 0.2 54
2019-10-19 23:00:00 16.7 10 Sudoeste 19 Sudoeste 0 934.9 0.2 52
2019-10-19 22:00:00 16.4 8 Oeste 14 Oeste 0 934.8 0.3 56
2019-10-19 21:00:00 18.1 5 Sudoeste 17 Sur 0 934.7 0.1 61
2019-10-19 20:00:00 20.6 7 Sudoeste 14 Oeste 0 934.7 -0.3 54
2019-10-19 19:00:00 22.2 8 Sudoeste 17 Sudoeste 0 934.5 -0.9 48
2019-10-19 18:00:00 23.6 8 Sur 18 Sudoeste 0 934.6 -1.3 42
2019-10-19 17:00:00 25.1 6 Sur 23 Oeste 0 935 -2 38
2019-10-19 16:00:00 26.6 8 Sudoeste 30 Oeste 0 935.4 -2.7 33
2019-10-19 15:00:00 26 12 Sudoeste 35 Oeste 0 935.9 -3.2 32
2019-10-19 14:00:00 24.6 18 Sudoeste 39 Sudoeste 0 937 -2.6 37
2019-10-19 13:00:00 23.6 16 Oeste 27 Oeste 0 938.1 -1.5 41
2019-10-19 12:00:00 22.2 11 Sudoeste 22 Sudoeste 0 939.1 0 50
2019-10-19 11:00:00 20 14 Sudoeste 24 Sudoeste 0 939.6 0.6 58
2019-10-19 10:00:00 17 11 Sudoeste 25 Oeste 0 939.6 0.4 67
2019-10-19 09:00:00 12.9 14 Oeste 22 Oeste 0 939.1 -0.1 73
2019-10-19 08:00:00 12.4 6 Oeste 20 Oeste 0 939 -0.4 77
2019-10-19 07:00:00 11.5 7 Oeste 14 Noroeste 0 939.2 -0.8 81
2019-10-19 06:00:00 10.3 2 Norte 9 Sudoeste 0 939.2 -1.4 82
2019-10-19 05:00:00 12.7 7 Sudoeste 21 Sudoeste 0 939.4 -1.7 71
2019-10-19 04:00:00 13.5 9 Oeste 21 Oeste 0 940 -1.3 68
2019-10-19 03:00:00 14 8 Oeste 16 Oeste 0 940.6 -0.9 64
2019-10-19 02:00:00 13.2 10 Oeste 21 Oeste 0 941.1 -0.7 67
2019-10-19 01:00:00 14 10 Oeste 20 Sudoeste 0 941.3 -0.5 61
2019-10-19 00:00:00 14.7 12 Oeste 22 Oeste 0 941.5 -0.5 58
2019-10-18 23:00:00 15 8 Oeste 15 Oeste 0 941.8 0 56
2019-10-18 22:00:00 16.4 6 Oeste 15 Oeste 0 941.8 -0.2 49
2019-10-18 21:00:00 18.4 9 Oeste 15 Oeste 0 942 0 39
2019-10-18 20:00:00 18.3 7 Noroeste 10 Noroeste 0 941.8 -0.3 50
2019-10-18 19:00:00 20.8 3 Norte 10 Nordeste 0 942 -0.3 47
2019-10-18 18:00:00 23 5 Nordeste 15 Nordeste 0 942 -0.8 38
2019-10-18 17:00:00 24.6 9 Nordeste 18 Nordeste 0 942.1 -1.8 32
2019-10-18 16:00:00 24.6 12 Este 19 Este 0 942.3 -2.4 31
2019-10-18 15:00:00 25.5 9 Este 15 Este 0 942.8 -2.2 31
2019-10-18 14:00:00 24.7 4 Noroeste 11 Este 0 943.9 -1.4 31
2019-10-18 13:00:00 23.2 4 Este 9 Sudeste 0 944.7 -0.5 32
2019-10-18 12:00:00 21.4 3 Sur 13 Oeste 0 945 0.6 37
2019-10-18 11:00:00 17.3 6 Sudoeste 16 Sudoeste 0 945.3 0.9 51
2019-10-18 10:00:00 14.5 9 Oeste 21 Oeste 0 945.2 0.7 59
2019-10-18 09:00:00 12.4 11 Oeste 19 Oeste 0 944.4 -0.1 63
2019-10-18 08:00:00 12 14 Oeste 22 Oeste 0 944.4 -0.2 63
2019-10-18 07:00:00 11.8 10 Oeste 19 Oeste 0 944.5 -0.5 63
2019-10-18 06:00:00 11.6 13 Oeste 21 Oeste 0 944.5 -0.9 63
2019-10-18 05:00:00 12 14 Oeste 23 Oeste 0 944.6 -0.9 61
2019-10-18 04:00:00 12.2 15 Oeste 26 Oeste 0 945 -0.6 59
2019-10-18 03:00:00 12.8 14 Oeste 24 Oeste 0 945.4 -0.4 55
2019-10-18 02:00:00 12.7 7 Oeste 23 Oeste 0 945.5 -0.2 53
2019-10-18 01:00:00 13.4 18 Oeste 25 Oeste 0 945.6 0.4 49
2019-10-18 00:00:00 14.1 12 Oeste 22 Sudoeste 0 945.8 1.1 46
2019-10-17 23:00:00 14.5 9 Sudoeste 14 Oeste 0 945.7 1.5 43
2019-10-17 22:00:00 15 6 Sudoeste 11 Noroeste 0 945.2 1.5 40
2019-10-17 21:00:00 16.7 6 Oeste 13 Noroeste 0 944.7 1.2 36
2019-10-17 20:00:00 18.3 8 Noroeste 13 Noroeste 0 944.2 0.7 33
2019-10-17 19:00:00 21.8 0 Calma 10 Sudeste 0 943.7 -0.2 33
2019-10-17 18:00:00 23.3 6 Nordeste 15 Este 0 943.5 -0.8 22
2019-10-17 17:00:00 24.1 9 Sudeste 15 Sudeste 0 943.5 -1.5 20
2019-10-17 16:00:00 24.2 6 Este 14 Sudeste 0 943.9 -1.8 18
2019-10-17 15:00:00 24.1 5 Este 14 Este 0 944.3 -1.6 20
2019-10-17 14:00:00 23.1 6 Sudeste 15 Sudeste 0 945 -0.7 23
2019-10-17 13:00:00 22.4 6 Sudeste 12 Este 0 945.7 0.4 23
2019-10-17 12:00:00 20.8 5 Sudeste 9 Sur 0 945.9 1.2 28
2019-10-17 11:00:00 18.2 3 Este 13 Oeste 0 945.7 1.4 31
2019-10-17 10:00:00 14.1 9 Oeste 22 Oeste 0 945.3 1 42
2019-10-17 09:00:00 9.3 16 Oeste 23 Oeste 0 944.7 0.4 53
2019-10-17 08:00:00 8.3 18 Oeste 28 Sudoeste 0 944.3 -0.2 56
2019-10-17 07:00:00 8.8 16 Oeste 26 Sudoeste 0 944.3 -0.6 55
2019-10-17 06:00:00 9.3 14 Oeste 24 Oeste 0 944.3 -0.5 54
2019-10-17 05:00:00 10.2 9 Oeste 22 Oeste 0 944.5 -0.3 53
2019-10-17 04:00:00 10.1 13 Oeste 21 Oeste 0 944.9 -0.3 56
2019-10-17 03:00:00 10.3 11 Oeste 22 Sudoeste 0 944.8 -0.6 58
2019-10-17 02:00:00 11 12 Sudoeste 23 Oeste 0 944.8 -0.3 58
2019-10-17 01:00:00 10.8 8 Oeste 23 Oeste 0 945.2 0.6 62
2019-10-17 00:00:00 11.7 8 Oeste 18 Oeste 0 945.4 1 60
2019-10-16 23:00:00 11.4 3 Sur 12 Sudoeste 0 945.1 1.1 65
2019-10-16 22:00:00 13.4 6 Oeste 14 Oeste 0 944.6 1 57
2019-10-16 21:00:00 14.4 7 Noroeste 13 Noroeste 0 944.4 0.6 52
2019-10-16 20:00:00 14.6 5 Noroeste 8 Noroeste 0 944 -0.2 53
2019-10-16 19:00:00 19 6 Este 12 Este 0 943.6 -1 38
2019-10-16 18:00:00 20.8 6 Nordeste 15 Nordeste 0 943.8 -1.3 31
2019-10-16 17:00:00 21.4 7 Este 17 Sudeste 0 944.2 -1.7 31
2019-10-16 16:00:00 21.7 8 Este 17 Nordeste 0 944.6 -2.2 29
2019-10-16 15:00:00 22.1 6 Este 15 Este 0 945.1 -2.1 27
2019-10-16 14:00:00 21 8 Este 14 Sudeste 0 945.9 -1.6 30
2019-10-16 13:00:00 20.2 4 Este 12 Este 0 946.8 -0.4 33
2019-10-16 12:00:00 18.2 4 Este 12 Sudeste 0 947.2 0.4 37
2019-10-16 11:00:00 16.2 5 Este 14 Oeste 0 947.5 0.8 43
2019-10-16 10:00:00 11.7 9 Oeste 23 Oeste 0 947.2 0.7 59
2019-10-16 09:00:00 7.5 15 Oeste 23 Oeste 0 946.8 0 70
2019-10-16 08:00:00 6.9 11 Oeste 23 Oeste 0 946.7 -0.1 72
2019-10-16 07:00:00 6.9 13 Oeste 23 Oeste 0 946.5 -0.3 72
2019-10-16 06:00:00 7.3 16 Oeste 23 Oeste 0 946.8 -0.4 70
2019-10-16 05:00:00 7.5 17 Oeste 23 Oeste 0 946.8 -0.4 69
2019-10-16 04:00:00 8 16 Oeste 22 Oeste 0 946.8 -0.5 66
2019-10-16 03:00:00 8.2 6 Oeste 19 Oeste 0 947.2 -0.1 65
2019-10-16 02:00:00 8.4 6 Sudoeste 14 Sudoeste 0 947.2 -0.2 63
2019-10-16 01:00:00 10 10 Oeste 15 Oeste 0 947.3 0.5 57
2019-10-16 00:00:00 8.2 5 Oeste 10 Oeste 0 947.3 0.8 71
2019-10-15 23:00:00 9.9 4 Noroeste 9 Noroeste 0 947.4 1.4 64
2019-10-15 22:00:00 11.3 5 Oeste 13 Noroeste 0 946.8 1.3 56
2019-10-15 21:00:00 13.1 6 Oeste 13 Noroeste 0 946.5 1.4 46
2019-10-15 20:00:00 13.1 6 Noroeste 10 Noroeste 0 946 1.1 50
2019-10-15 19:00:00 17.6 6 Este 18 Este 0 945.5 0.4 33
2019-10-15 18:00:00 19.1 10 Este 19 Este 0 945.1 -0.4 28
2019-10-15 17:00:00 19.8 11 Este 20 Este 0 944.9 -1.4 28
2019-10-15 16:00:00 20.1 7 Nordeste 17 Nordeste 0 945.1 -1.5 28
2019-10-15 15:00:00 20.1 9 Este 17 Este 0 945.5 -1.3 26
2019-10-15 14:00:00 19.9 8 Nordeste 17 Este 0 946.3 -0.5 27
2019-10-15 13:00:00 19.8 7 Sur 22 Sudoeste 0 946.6 0.2 28
2019-10-15 12:00:00 17.8 11 Sudoeste 24 Sudoeste 0 946.8 1.1 30
2019-10-15 11:00:00 16.2 9 Oeste 23 Sudoeste 0 946.8 1.6 34
2019-10-15 10:00:00 13.6 10 Sudoeste 21 Sudoeste 0 946.4 1.6 44
2019-10-15 09:00:00 9.2 5 Este 22 Oeste 0 945.7 1.1 66
2019-10-15 08:00:00 7.3 10 Oeste 18 Oeste 0 945.2 1.2 74
2019-10-15 07:00:00 7.9 6 Oeste 13 Oeste 0 944.8 0.9 75
2019-10-15 06:00:00 10.2 9 Oeste 21 Oeste 0 944.6 0.7 64
2019-10-15 05:00:00 12.9 14 Oeste 25 Sudoeste 0 944 0.4 53
2019-10-15 04:00:00 13.5 6 Sur 28 Oeste 0 943.9 1.1 51
2019-10-15 03:00:00 14.8 13 Oeste 31 Oeste 0 943.9 1 46
2019-10-15 02:00:00 14.3 9 Oeste 31 Noroeste 0 943.6 1.3 62
2019-10-15 01:00:00 14.9 5 Sudoeste 17 Oeste 0 942.8 1.2 56
2019-10-15 00:00:00 16.1 5 Oeste 28 Oeste 0 942.9 1.9 49
2019-10-14 23:00:00 16.6 8 Noroeste 24 Sudoeste 0 942.3 2.2 44
2019-10-14 22:00:00 18.4 12 Oeste 30 Oeste 0 941.6 1.9 38
2019-10-14 21:00:00 17.8 4 Oeste 35 Oeste 0 941 2 48
2019-10-14 20:00:00 20 13 Oeste 32 Oeste 0 940.1 1.1 40
2019-10-14 19:00:00 22.1 14 Oeste 33 Oeste 0 939.7 0.3 37
2019-10-14 18:00:00 24.6 18 Sudoeste 34 Sudoeste 0 939 -0.9 35
2019-10-14 17:00:00 24.4 5 Este 22 Nordeste 0 939 -1.8 45
2019-10-14 16:00:00 23.6 8 Nordeste 26 Nordeste 0 939.4 -1.3 50
2019-10-14 15:00:00 20.6 9 Nordeste 26 Nordeste 0 939.9 -1.6 64
2019-10-14 14:00:00 21.4 12 Este 21 Este 0 940.8 -1.5 61
2019-10-14 13:00:00 21.8 6 Sudeste 13 Sudeste 0 940.7 -1.5 59
2019-10-14 12:00:00 19.1 2 Este 15 Este 0 941.5 -0.1 73
2019-10-14 11:00:00 17.5 3 Sudeste 8 Sur 0 942.3 1.8 78
2019-10-14 10:00:00 15.1 5 Sudoeste 15 Oeste 0 942.2 1.3 80
2019-10-14 09:00:00 12.4 9 Sudoeste 16 Sudoeste 0 941.6 0.6 90
2019-10-14 08:00:00 10.9 4 Oeste 8 Oeste 0 940.5 -0.7 91
2019-10-14 07:00:00 11.4 3 Oeste 7 Noroeste 0 940.9 -0.8 90
2019-10-14 06:00:00 12 3 Norte 18 Oeste 0 941 -1.5 89
2019-10-14 05:00:00 12.7 4 Sudoeste 7 Oeste 0 941.2 -2 90
2019-10-14 04:00:00 13.3 3 Sur 8 Oeste 0 941.7 -1.8 88
2019-10-14 03:00:00 14.9 3 Sudoeste 19 Oeste 0 942.5 -0.8 82
2019-10-14 02:00:00 15.3 4 Sudoeste 17 Oeste 0 943.2 -0.3 83
2019-10-14 01:00:00 16 6 Sudoeste 12 Sudoeste 0 943.5 0.1 81
2019-10-14 00:00:00 17.9 8 Oeste 12 Oeste 0 943.3 -0.2 78
2019-10-13 23:00:00 16.4 5 Oeste 12 Sudoeste 0 943.5 0.4 83
2019-10-13 22:00:00 17.3 4 Oeste 9 Oeste 0 943.4 0.6 79
2019-10-13 21:00:00 18.7 3 Noroeste 10 Norte 0 943.5 0.8 76
2019-10-13 20:00:00 20.1 4 Norte 8 Norte 0 943.1 0.6 71
2019-10-13 19:00:00 23.3 5 Nordeste 19 Este 0 942.8 0.4 58
2019-10-13 18:00:00 25.5 12 Este 26 Este 0 942.7 0 50
2019-10-13 17:00:00 26.5 11 Nordeste 25 Nordeste 0 942.5 -1 47
2019-10-13 16:00:00 26.6 12 Nordeste 29 Este 0 942.4 -1.8 48
2019-10-13 15:00:00 27.2 9 Este 20 Este 0 942.7 -1.8 45
2019-10-13 14:00:00 26.4 10 Este 18 Este 0 943.5 -1.2 47
2019-10-13 13:00:00 25.8 6 Este 13 Este 0 944.2 -0.2 48
2019-10-13 12:00:00 24 5 Este 9 Este 0 944.5 0.4 56
2019-10-13 11:00:00 20.6 5 Sudoeste 21 Oeste 0 944.7 0.9 69
2019-10-13 10:00:00 17.4 11 Oeste 19 Sudoeste 0 944.4 0.8 77
2019-10-13 09:00:00 14.8 8 Oeste 15 Oeste 0 944.1 0.4 87
2019-10-13 08:00:00 15.3 5 Sudoeste 12 Sudoeste 0 943.8 0.3 88
2019-10-13 07:00:00 16 6 Sudoeste 11 Sudoeste 0 943.6 -0.3 85
2019-10-13 06:00:00 16.1 6 Oeste 13 Sudoeste 0 943.7 -0.6 85
2019-10-13 05:00:00 16.1 3 Sudoeste 11 Oeste 0 943.5 -1 90
2019-10-13 04:00:00 16.1 2 Sudoeste 5 Sudoeste 0 943.9 -0.7 92
2019-10-13 03:00:00 15 3 Oeste 6 Sudoeste 0 944.3 -0.5 91
2019-10-13 02:00:00 15.1 3 Oeste 6 Noroeste 0 944.5 0 91
2019-10-13 01:00:00 15.7 4 Oeste 6 Oeste 0 944.6 0.4 91
2019-10-13 00:00:00 16.3 0 Calma 3 Noroeste 0 944.8 0.8 90
2019-10-12 23:00:00 15.8 3 Sudoeste 6 Noroeste 0 944.5 0.8 89
2019-10-12 22:00:00 16.4 5 Noroeste 7 Noroeste 0 944.2 0.9 88
2019-10-12 21:00:00 17.8 5 Norte 8 Norte 0 944 0.7 84
2019-10-12 20:00:00 18.6 4 Noroeste 8 Nordeste 0 943.7 -0.1 81
2019-10-12 19:00:00 21.3 4 Nordeste 14 Este 0 943.3 -0.7 70
2019-10-12 18:00:00 22.4 5 Este 13 Este 0 943.3 -1.2 64
2019-10-12 17:00:00 22.9 5 Sudeste 10 Nordeste 0 943.8 -1.5 62
2019-10-12 16:00:00 22.1 6 Este 13 Este 0 944 -2 64
2019-10-12 15:00:00 22.1 2 Este 10 Sudeste 0 944.5 -1.8 65
2019-10-12 14:00:00 20.7 4 Este 9 Este 0 945.3 -0.9 68
2019-10-12 13:00:00 20.2 4 Este 13 Nordeste 0 946 0.4 69
2019-10-12 12:00:00 19.1 5 Nordeste 12 Nordeste 0 946.3 1 73
2019-10-12 11:00:00 17.9 6 Este 13 Sudeste 0 946.2 1 78
2019-10-12 10:00:00 16.6 3 Sudeste 8 Sudoeste 0 945.6 0.5 79
2019-10-12 09:00:00 12.3 2 Sudoeste 6 Noroeste 0 945.3 0.4 89
2019-10-12 08:00:00 11.4 5 Noroeste 14 Oeste 0 945.2 0 87
2019-10-12 07:00:00 13.1 9 Oeste 13 Oeste 0 945.1 -0.2 83
2019-10-12 06:00:00 13.4 6 Oeste 12 Oeste 0 944.9 -1.2 83
2019-10-12 05:00:00 13.5 6 Oeste 12 Sudoeste 0 945.2 -1.2 88
2019-10-12 04:00:00 13.3 2 Oeste 9 Oeste 0 945.3 -1.5 90
2019-10-12 03:00:00 14 4 Oeste 8 Oeste 0 946.1 -0.6 89
2019-10-12 02:00:00 14 3 Oeste 7 Oeste 0 946.4 -0.4 90
2019-10-12 01:00:00 13.7 4 Noroeste 7 Oeste 0 946.8 0.4 90
2019-10-12 00:00:00 14.1 4 Oeste 6 Noroeste 0 946.7 0.6 89
2019-10-11 23:00:00 14.4 0 Calma 5 Noroeste 0 946.8 0.9 88
2019-10-11 22:00:00 15.6 3 Noroeste 8 Norte 0 946.4 0.7 85
2019-10-11 21:00:00 17 4 Norte 8 Norte 0 946.1 0.4 82
2019-10-11 20:00:00 19.4 4 Norte 9 Norte 0 945.9 0 73
2019-10-11 19:00:00 21.6 3 Norte 9 Nordeste 0 945.7 -0.4 67
2019-10-11 18:00:00 22.5 4 Nordeste 15 Este 0 945.7 -1 61
2019-10-11 17:00:00 23.3 10 Este 17 Este 0 945.9 -1.6 56
2019-10-11 16:00:00 24.9 8 Este 18 Nordeste 0 946.1 -2.4 50
2019-10-11 15:00:00 24.8 10 Este 19 Sudeste 0 946.7 -2.1 48
2019-10-11 14:00:00 24.8 6 Este 17 Este 0 947.5 -1.6 49
2019-10-11 13:00:00 23.5 6 Este 13 Este 0 948.5 -0.3 47
2019-10-11 12:00:00 21.7 6 Este 16 Este 0 948.8 0.6 56
2019-10-11 11:00:00 21.4 5 Sudeste 9 Este 0 949.1 1.1 61
2019-10-11 10:00:00 19.6 3 Sudeste 6 Sur 0 948.8 1 71
2019-10-11 09:00:00 16.1 0 Calma 5 Noroeste 0 948.2 0.2 88
2019-10-11 08:00:00 15.2 0 Calma 5 Noroeste 0 948 0.1 88
2019-10-11 07:00:00 16.3 2 Nordeste 4 Sudoeste 0 947.8 -0.4 84
2019-10-11 06:00:00 17.3 2 Noroeste 6 Este 0 948 -0.3 82
2019-10-11 05:00:00 17.2 4 Noroeste 5 Noroeste 0 947.9 -0.6 81
2019-10-11 04:00:00 17.2 3 Oeste 5 Nordeste 0 948.2 -0.3 81
2019-10-11 03:00:00 17.2 3 Norte 9 Nordeste 0 948.3 -0.3 82
2019-10-11 02:00:00 17.1 3 Norte 5 Nordeste 0 948.5 0 83
2019-10-11 01:00:00 16.9 2 Norte 9 Sudoeste 0 948.5 0.4 85
2019-10-11 00:00:00 16.1 2 Sur 8 Oeste 0 948.6 1 87
2019-10-10 23:00:00 16 5 Oeste 8 Sudoeste 0 948.5 1.3 86
2019-10-10 22:00:00 17.2 5 Norte 9 Norte 0 948.1 1.3 83
2019-10-10 21:00:00 18.5 5 Nordeste 13 Nordeste 0 947.6 1 80
2019-10-10 20:00:00 19.9 3 Nordeste 11 Nordeste 0 947.2 0.8 72
2019-10-10 19:00:00 21.8 8 Este 18 Este 0 946.8 0.2 63
2019-10-10 18:00:00 23.1 11 Este 22 Este 0 946.6 -0.3 58
2019-10-10 17:00:00 24.2 7 Nordeste 17 Este 0 946.4 -1.3 55
2019-10-10 16:00:00 24.3 7 Este 17 Nordeste 0 946.6 -1.6 53
2019-10-10 15:00:00 24.2 8 Este 18 Este 0 946.9 -1.5 53
2019-10-10 14:00:00 23.9 9 Este 18 Este 0 947.7 -0.9 54
2019-10-10 13:00:00 22.3 8 Este 15 Nordeste 0 948.2 0.3 60
2019-10-10 12:00:00 20.7 5 Nordeste 17 Nordeste 0 948.4 1.3 68
2019-10-10 11:00:00 20.1 10 Este 19 Este 0 948.6 1.8 74
2019-10-10 10:00:00 19.2 4 Sudoeste 15 Oeste 0 947.9 1.4 72
2019-10-10 09:00:00 17.8 5 Oeste 9 Oeste 0 947.1 0.8 78
2019-10-10 08:00:00 17.2 3 Oeste 6 Noroeste 0 946.8 0.6 84
2019-10-10 07:00:00 17.2 3 Norte 5 Nordeste 0 946.5 0.3 85
2019-10-10 06:00:00 17.1 3 Norte 7 Noroeste 0 946.3 0.1 85
2019-10-10 05:00:00 16.9 3 Noroeste 13 Nordeste 0 946.2 0.1 88
2019-10-10 04:00:00 16.7 5 Norte 13 Nordeste 0 946.2 0.4 90
2019-10-10 03:00:00 16.6 5 Este 12 Nordeste 0 946.2 0.8 90
2019-10-10 02:00:00 15.4 2 Sudoeste 6 Este 0 946.1 1.1 89
2019-10-10 01:00:00 16.4 3 Este 8 Este 0 945.8 1.5 87
2019-10-10 00:00:00 17.3 2 Este 14 Oeste 0 945.4 1.5 81
2019-10-09 23:00:00 18.2 4 Oeste 12 Sudoeste 0 945 1.5 78
2019-10-09 22:00:00 18.9 5 Oeste 10 Oeste 0 944.3 1.3 76
2019-10-09 21:00:00 18.9 3 Oeste 7 Noroeste 0 943.9 1.4 77
2019-10-09 20:00:00 20.9 4 Norte 11 Nordeste 0 943.5 0.9 70
2019-10-09 19:00:00 24.2 5 Nordeste 15 Este 0 943 0.1 57
2019-10-09 18:00:00 26.1 8 Este 16 Este 0 942.5 -0.6 50
2019-10-09 17:00:00 26.9 5 Este 17 Este 0 942.6 -1.2 44
2019-10-09 16:00:00 27.5 8 Este 18 Este 0 942.9 -1.4 46
2019-10-09 15:00:00 26.6 8 Este 22 Este 0 943.1 -1.4 48
2019-10-09 14:00:00 26.1 7 Este 17 Nordeste 0 943.8 -0.8 49
2019-10-09 13:00:00 25.3 6 Este 14 Este 0 944.3 -0.1 50
2019-10-09 12:00:00 23.9 4 Este 10 Este 0 944.5 0.5 55
2019-10-09 11:00:00 21.5 3 Este 8 Este 0 944.6 1 61
2019-10-09 10:00:00 18.3 4 Este 6 Sur 0 944.4 0.8 77
2019-10-09 09:00:00 14.1 3 Este 8 Oeste 0 944 0.3 92
2019-10-09 08:00:00 12.7 4 Noroeste 14 Oeste 0 943.6 -0.2 91
2019-10-09 07:00:00 13.4 5 Oeste 9 Oeste 0 943.6 -0.4 91
2019-10-09 06:00:00 13 0 Calma 9 Sudoeste 0 943.7 -0.8 91
2019-10-09 05:00:00 13.5 4 Sudoeste 6 Oeste 0 943.8 -0.9 91
2019-10-09 04:00:00 13.8 2 Norte 9 Oeste 0 944 -1 90
2019-10-09 03:00:00 14.1 2 Oeste 5 Noroeste 0 944.5 -0.7 89
2019-10-09 02:00:00 14.8 3 Sudoeste 9 Sudoeste 0 944.7 -0.5 87
2019-10-09 01:00:00 15.8 2 Este 6 Oeste 0 945 0.1 84
2019-10-09 00:00:00 17.3 4 Noroeste 15 Oeste 0 945.2 0.2 80
2019-10-08 23:00:00 18 10 Oeste 15 Oeste 0 945.2 0.6 78
2019-10-08 22:00:00 19 8 Sudoeste 18 Sudoeste 0 944.9 0.7 74
2019-10-08 21:00:00 19.9 10 Oeste 18 Oeste 0 945 0.7 72
2019-10-08 20:00:00 20.9 8 Oeste 13 Oeste 0 944.6 0.1 69
2019-10-08 19:00:00 23.3 3 Noroeste 17 Este 0 944.2 -0.6 62
2019-10-08 18:00:00 24.5 6 Nordeste 16 Este 0 944.3 -1 58
2019-10-08 17:00:00 26.7 5 Sur 18 Sur 0 944.5 -1.3 48
2019-10-08 16:00:00 26.5 5 Sur 21 Sur 0 944.8 -1.9 46
2019-10-08 15:00:00 26.8 9 Sudoeste 18 Sur 0 945.3 -2.1 48
2019-10-08 14:00:00 26.6 8 Sudeste 17 Sur 0 945.8 -1.7 47
2019-10-08 13:00:00 25.9 6 Sur 19 Sudoeste 0 946.7 -0.6 50
2019-10-08 12:00:00 24 9 Sudoeste 20 Sur 0 947.4 0.5 57
2019-10-08 11:00:00 21.6 10 Sudoeste 23 Oeste 0 947.5 0.7 63
2019-10-08 10:00:00 19.2 7 Sudoeste 17 Sur 0 947.3 1 74
2019-10-08 09:00:00 15.9 7 Sudoeste 14 Sudoeste 0 946.9 1 90
2019-10-08 08:00:00 15.5 8 Oeste 15 Sudoeste 0 946.8 0.9 90
2019-10-08 07:00:00 15.6 4 Sudoeste 10 Oeste 0 946.3 0.6 91
2019-10-08 06:00:00 15.5 7 Oeste 9 Oeste 0 945.9 0.1 91
2019-10-08 05:00:00 13.9 4 Oeste 6 Oeste 0 945.9 0.4 91
2019-10-08 04:00:00 13.8 3 Norte 8 Oeste 0 945.7 -0.2 89
2019-10-08 03:00:00 14.7 4 Noroeste 6 Sudoeste 0 945.8 -0.1 89
2019-10-08 02:00:00 16.3 3 Oeste 12 Oeste 0 945.5 -0.1 89
2019-10-08 01:00:00 16.3 3 Sudoeste 10 Oeste 0 945.9 0.8 88
2019-10-08 00:00:00 16.6 5 Sudoeste 7 Sudoeste 0 945.9 1.5 88
2019-10-07 23:00:00 17.5 3 Sudoeste 10 Nordeste 0 945.6 1.9 85
2019-10-07 22:00:00 18.6 5 Nordeste 11 Nordeste 0 945.1 1.8 82
2019-10-07 21:00:00 20 2 Norte 11 Este 0 944.4 1.5 74
2019-10-07 20:00:00 22.8 4 Nordeste 18 Este 0 943.7 0.9 59
2019-10-07 19:00:00 26.9 10 Nordeste 20 Este 0 943.3 0.4 36
2019-10-07 18:00:00 29 6 Nordeste 28 Nordeste 0 942.9 -0.1 25
2019-10-07 17:00:00 30.2 11 Nordeste 26 Nordeste 0 942.8 -0.9 24
2019-10-07 16:00:00 30.4 10 Norte 33 Norte 0 942.9 -1.1 23
2019-10-07 15:00:00 30.2 9 Norte 31 Norte 0 943 -1.4 23
2019-10-07 14:00:00 29.8 10 Norte 26 Norte 0 943.7 -1.1 22
2019-10-07 13:00:00 29.5 10 Norte 30 Nordeste 0 944 -0.4 21
2019-10-07 12:00:00 28 10 Nordeste 26 Nordeste 0 944.4 0.2 21
2019-10-07 11:00:00 26 4 Sudeste 10 Sudeste 0 944.8 1 27
2019-10-07 10:00:00 21 4 Este 9 Noroeste 0 944.4 0.6 45
2019-10-07 09:00:00 14.9 4 Sur 9 Oeste 0 944.2 0.8 63
2019-10-07 08:00:00 14.5 4 Oeste 13 Oeste 0 943.8 0.3 56
2019-10-07 07:00:00 16.8 3 Sudoeste 15 Oeste 0 943.8 0 48
2019-10-07 06:00:00 19.5 7 Oeste 18 Noroeste 0 943.4 -1.1 37
2019-10-07 05:00:00 17.8 6 Noroeste 14 Noroeste 0 943.5 -1 43
2019-10-07 04:00:00 15.7 3 Este 13 Oeste 0 943.8 -1.4 58
2019-10-07 03:00:00 15.5 8 Sudoeste 19 Sudoeste 0 944.5 -1 59
2019-10-07 02:00:00 16.4 10 Sudoeste 17 Oeste 0 944.5 -0.8 55
2019-10-07 01:00:00 15.7 5 Oeste 16 Oeste 0 945.2 0.2 64
2019-10-07 00:00:00 17.3 8 Oeste 13 Oeste 0 945.5 1.1 61
2019-10-06 23:00:00 18.8 6 Sudoeste 13 Oeste 0 945.3 1.2 59
2019-10-06 22:00:00 20.5 10 Oeste 15 Oeste 0 945 1.2 56
2019-10-06 21:00:00 22.3 10 Oeste 19 Oeste 0 944.4 0.8 50
2019-10-06 20:00:00 22.8 10 Oeste 17 Oeste 0 944.1 0.2 49
2019-10-06 19:00:00 25.3 3 Norte 12 Este 0 943.8 -0.3 38
2019-10-06 18:00:00 27.9 8 Sudeste 17 Sudeste 0 943.6 -0.9 26
2019-10-06 17:00:00 28.4 8 Nordeste 18 Nordeste 0 943.9 -1.6 25
2019-10-06 16:00:00 29 9 Nordeste 19 Nordeste 0 944.1 -1.4 26
2019-10-06 15:00:00 29.3 7 Este 18 Nordeste 0 944.5 -1.2 26
2019-10-06 14:00:00 29.2 9 Este 19 Este 0 945.5 0 28
2019-10-06 13:00:00 28.3 6 Este 14 Este 0 945.5 0.3 29
2019-10-06 12:00:00 27.2 5 Sudeste 11 Sudeste 0 945.7 0.6 30
2019-10-06 11:00:00 24.5 2 Oeste 20 Sudoeste 0 945.5 0.9 42
2019-10-06 10:00:00 19.4 10 Sudoeste 24 Sudoeste 0 945.2 0.9 53
2019-10-06 09:00:00 14.4 9 Oeste 19 Oeste 0 945.1 1.1 68
2019-10-06 08:00:00 14 5 Oeste 27 Oeste 0 944.6 0.6 66
2019-10-06 07:00:00 14.1 8 Oeste 25 Sudoeste 0 944.3 0.2 64
2019-10-06 06:00:00 14.7 14 Oeste 23 Oeste 0 944 -0.4 60
2019-10-06 05:00:00 14.9 9 Oeste 24 Sudoeste 0 944 -0.4 59
2019-10-06 04:00:00 14.4 6 Oeste 22 Oeste 0 944.1 -0.4 63
2019-10-06 03:00:00 14.7 15 Oeste 25 Oeste 0 944.4 -0.1 58
2019-10-06 02:00:00 13.9 5 Oeste 17 Oeste 0 944.4 0.4 68
2019-10-06 01:00:00 14.9 12 Oeste 20 Sudoeste 0 944.5 0.7 68
2019-10-06 00:00:00 14.5 5 Noroeste 10 Sudoeste 0 944.5 1.3 75
2019-10-05 23:00:00 17.3 4 Sudoeste 15 Sudoeste 0 944 1.1 64
2019-10-05 22:00:00 19.7 10 Oeste 15 Oeste 0 943.8 1.2 56
2019-10-05 21:00:00 20.4 8 Oeste 14 Noroeste 0 943.2 1.2 54
2019-10-05 20:00:00 21 6 Noroeste 12 Nordeste 0 942.9 1.2 57
2019-10-05 19:00:00 24.6 5 Nordeste 20 Nordeste 0 942.6 0.7 42
2019-10-05 18:00:00 26.5 11 Este 23 Este 0 942 -0.2 32
2019-10-05 17:00:00 27.8 10 Este 23 Este 0 941.7 -1.2 28
2019-10-05 16:00:00 28.8 11 Este 20 Este 0 941.9 -1.6 24
2019-10-05 15:00:00 29.2 8 Este 17 Nordeste 0 942.2 -1.3 25
2019-10-05 14:00:00 28.6 9 Este 16 Este 0 942.9 -0.6 26
2019-10-05 13:00:00 28.1 5 Este 11 Nordeste 0 943.5 0.2 25
2019-10-05 12:00:00 27.2 4 Sudeste 9 Este 0 943.5 0.6 24
2019-10-05 11:00:00 24 7 Sudoeste 20 Sudoeste 0 943.5 0.9 35
2019-10-05 10:00:00 18.9 12 Sudoeste 25 Oeste 0 943.3 0.9 45
2019-10-05 09:00:00 15.2 18 Oeste 26 Sudoeste 0 942.9 0.5 51
2019-10-05 08:00:00 13.9 14 Oeste 25 Oeste 0 942.6 0.2 53
2019-10-05 07:00:00 14.6 17 Oeste 24 Oeste 0 942.4 0 50
2019-10-05 06:00:00 14.6 16 Oeste 27 Oeste 0 942.4 -0.5 49
2019-10-05 05:00:00 14.2 10 Oeste 19 Sudoeste 0 942.4 -0.3 52
2019-10-05 04:00:00 14.8 13 Oeste 19 Oeste 0 942.4 -0.5 50
2019-10-05 03:00:00 13.2 6 Oeste 15 Sudoeste 0 942.9 -0.2 59
2019-10-05 02:00:00 15.5 12 Oeste 18 Oeste 0 942.7 -0.3 50
2019-10-05 01:00:00 15.5 7 Oeste 18 Oeste 0 942.9 0.1 56
2019-10-05 00:00:00 17 9 Oeste 21 Oeste 0 943.1 0.3 55
2019-10-04 23:00:00 16.7 6 Oeste 15 Oeste 0 943 0.5 59
2019-10-04 22:00:00 19 10 Sudoeste 20 Sudoeste 0 942.8 0.6 51
2019-10-04 21:00:00 21.1 10 Sudoeste 18 Oeste 0 942.8 0.6 42
2019-10-04 20:00:00 22.2 10 Oeste 15 Oeste 0 942.5 0.3 39
2019-10-04 19:00:00 24.8 3 Norte 16 Este 0 942.2 -0.5 40
2019-10-04 18:00:00 26.9 10 Este 16 Nordeste 0 942.2 -1.3 27
2019-10-04 17:00:00 28 9 Este 17 Este 0 942.2 -2 25
2019-10-04 16:00:00 28.5 9 Este 19 Este 0 942.7 -2.2 24
2019-10-04 15:00:00 28.5 6 Este 20 Este 0 943.5 -1.5 23
2019-10-04 14:00:00 28.6 7 Sudeste 15 Este 0 944.2 -1.2 22
2019-10-04 13:00:00 27.8 8 Sudoeste 20 Oeste 0 944.9 -0.4 21
2019-10-04 12:00:00 27.5 7 Sudeste 17 Sudoeste 0 945 0 22
2019-10-04 11:00:00 23.2 8 Sudoeste 19 Sudoeste 0 945.4 0.7 31
2019-10-04 10:00:00 18.6 8 Oeste 24 Oeste 0 945.3 0.9 47
2019-10-04 09:00:00 14.3 15 Oeste 24 Oeste 0 945 0.7 54
2019-10-04 08:00:00 12.7 11 Oeste 28 Sudoeste 0 944.7 0.4 58
2019-10-04 07:00:00 13.5 14 Oeste 23 Sudoeste 0 944.4 0.1 55
2019-10-04 06:00:00 13.6 15 Oeste 24 Oeste 0 944.3 -0.5 54
2019-10-04 05:00:00 13.9 17 Oeste 26 Oeste 0 944.3 -0.4 53
2019-10-04 04:00:00 14.2 15 Oeste 24 Sudoeste 0 944.3 -0.8 52
2019-10-04 03:00:00 14.5 16 Sudoeste 28 Sudoeste 0 944.8 -0.2 51
2019-10-04 02:00:00 15.1 17 Oeste 23 Oeste 0 944.7 -0.2 51
2019-10-04 01:00:00 16.4 13 Sudoeste 17 Oeste 0 945.1 0.5 45
2019-10-04 00:00:00 16.1 7 Oeste 20 Oeste 0 945 0.6 46
2019-10-03 23:00:00 17.3 8 Oeste 16 Sudoeste 0 944.9 1.3 45
2019-10-03 22:00:00 17.8 8 Sudoeste 15 Oeste 0 944.6 1.6 49
2019-10-03 21:00:00 20.1 8 Oeste 17 Oeste 0 944.4 1.3 37
2019-10-03 20:00:00 20.1 8 Noroeste 12 Noroeste 0 943.6 0.3 42
2019-10-03 19:00:00 24.1 4 Nordeste 13 Este 0 943 -0.5 36
2019-10-03 18:00:00 26 8 Sudeste 17 Sudeste 0 943.1 -0.8 22
2019-10-03 17:00:00 27 9 Este 17 Este 0 943.3 -1.2 25
2019-10-03 16:00:00 26.8 4 Este 16 Este 0 943.5 -1.2 23
2019-10-03 15:00:00 26.6 7 Sudeste 19 Sudeste 0 943.9 -1.4 27
2019-10-03 14:00:00 25.6 7 Este 19 Este 0 944.5 -0.6 28
2019-10-03 13:00:00 25.2 10 Este 18 Este 0.2 944.7 -0.4 29
2019-10-03 12:00:00 24.1 5 Este 13 Este 0 945.3 0.6 30
2019-10-03 11:00:00 22.1 6 Sur 17 Oeste 0 945.1 0.4 38
2019-10-03 10:00:00 17.4 8 Sudoeste 23 Sudoeste 0 945.1 0.9 47
2019-10-03 09:00:00 13.6 8 Sudoeste 21 Oeste 0 944.7 0.5 56
2019-10-03 08:00:00 11.4 11 Sudoeste 19 Oeste 0 944.7 0.8 65
2019-10-03 07:00:00 11 4 Este 10 Oeste 0 944.2 0.1 69
2019-10-03 06:00:00 12.1 6 Oeste 12 Oeste 0 944.2 -0.2 67
2019-10-03 05:00:00 15.4 3 Oeste 15 Oeste 0 943.9 -0.7 48
2019-10-03 04:00:00 14.2 5 Oeste 12 Sudoeste 0 944.1 -0.5 52
2019-10-03 03:00:00 13.8 8 Oeste 18 Oeste 0 944.4 -0.2 51
2019-10-03 02:00:00 13.5 5 Sudoeste 13 Sudoeste 0 944.6 -0.1 53
2019-10-03 01:00:00 15.4 12 Sudoeste 23 Sudoeste 0 944.6 0.4 45
2019-10-03 00:00:00 16.2 9 Sudoeste 13 Sudoeste 0 944.6 0.8 42
2019-10-02 23:00:00 15.3 7 Oeste 13 Noroeste 0 944.7 1.8 48
2019-10-02 22:00:00 15.5 6 Noroeste 12 Noroeste 0 944.2 2 47
2019-10-02 21:00:00 18.2 8 Noroeste 13 Oeste 0 943.8 2.2 35
2019-10-02 20:00:00 20.3 3 Noroeste 14 Noroeste 0 942.9 1.8 35
2019-10-02 19:00:00 24 4 Noroeste 24 Oeste 0 942.2 0.8 30
2019-10-02 18:00:00 26.2 8 Noroeste 25 Noroeste 0 941.6 -0.2 22
2019-10-02 17:00:00 27.7 9 Noroeste 23 Noroeste 0 941.1 -1 19
2019-10-02 16:00:00 27.6 6 Sudeste 18 Este 0 941.4 -1.3 22
2019-10-02 15:00:00 27.5 4 Sudeste 17 Este 0 941.8 -1.1 27
2019-10-02 14:00:00 26.2 6 Este 14 Este 0 942.1 -1.1 32
2019-10-02 13:00:00 25.4 3 Sudeste 12 Este 0 942.7 -0.1 34
2019-10-02 12:00:00 23.4 8 Este 14 Este 0 942.9 0.6 40
2019-10-02 11:00:00 22.1 4 Este 11 Sudoeste 0 943.2 1.1 44
2019-10-02 10:00:00 16.7 2 Este 7 Sudeste 0 942.8 0.8 70
2019-10-02 09:00:00 13.7 3 Noroeste 15 Oeste 0 942.3 0.4 78
2019-10-02 08:00:00 11.9 5 Sudoeste 12 Oeste 0 942.1 0.3 82
2019-10-02 07:00:00 12.2 5 Oeste 10 Sur 0 942 0.2 81
2019-10-02 06:00:00 12.6 4 Oeste 10 Noroeste 0 941.9 0 78
2019-10-02 05:00:00 13.2 5 Noroeste 8 Noroeste 0 941.8 0.2 76
2019-10-02 04:00:00 15 4 Noroeste 13 Sudoeste 0 941.8 0.3 67
2019-10-02 03:00:00 16.1 4 Nordeste 12 Oeste 0 941.9 0.6 61
2019-10-02 02:00:00 14.6 5 Noroeste 12 Sur 0 941.6 0.3 63
2019-10-02 01:00:00 16.8 5 Sudoeste 17 Sudoeste 0 941.5 0.5 51
2019-10-02 00:00:00 17.4 6 Sudoeste 18 Sur 0 941.3 1.1 50
2019-10-01 23:00:00 18.2 6 Oeste 13 Sudoeste 0 941.3 1.4 48
2019-10-01 22:00:00 19.5 7 Oeste 16 Oeste 0 941 1.4 42
2019-10-01 21:00:00 20.2 7 Oeste 12 Noroeste 0 940.2 0.9 40
2019-10-01 20:00:00 22.6 6 Oeste 13 Oeste 0 939.9 1.1 33
2019-10-01 19:00:00 25.5 5 Oeste 21 Noroeste 0 939.6 0.5 27
2019-10-01 18:00:00 27 9 Noroeste 22 Noroeste 0 939.3 -0.3 20
2019-10-01 17:00:00 29.3 8 Oeste 23 Oeste 0 938.8 -1.3 22
2019-10-01 16:00:00 31 9 Oeste 26 Oeste 0 939.1 -1.5 16
2019-10-01 15:00:00 31 10 Oeste 27 Sudoeste 0 939.6 -1.6 15
2019-10-01 14:00:00 30.5 7 Oeste 23 Oeste 0 940.1 -1.5 17
2019-10-01 13:00:00 29.5 8 Norte 23 Norte 0 940.6 -0.9 22
2019-10-01 12:00:00 27.6 6 Nordeste 13 Sudoeste 0 941.2 0.4 28
2019-10-01 11:00:00 24.1 5 Sudoeste 13 Oeste 0 941.6 0.8 35
2019-10-01 10:00:00 18.2 7 Oeste 21 Oeste 0 941.5 0.6 49
2019-10-01 09:00:00 15.9 9 Oeste 24 Oeste 0 940.8 -0.3 52
2019-10-01 08:00:00 14.6 12 Oeste 23 Sudoeste 0 940.8 -0.5 52
2019-10-01 07:00:00 13.8 5 Oeste 24 Oeste 0 940.9 -0.9 63
2019-10-01 06:00:00 15.1 11 Oeste 19 Oeste 0 941.1 -1.4 53
2019-10-01 05:00:00 13.7 8 Oeste 18 Oeste 0 941.3 -1.7 60
2019-10-01 04:00:00 14.4 5 Oeste 20 Oeste 0 941.8 -1.3 66
2019-10-01 03:00:00 15.4 9 Oeste 16 Oeste 0 942.5 -0.8 64
2019-10-01 02:00:00 16.5 11 Oeste 16 Oeste 0 943 -0.3 68
2019-10-01 01:00:00 16.1 4 Oeste 7 Oeste 0 943.1 0 72
2019-10-01 00:00:00 18.2 4 Noroeste 13 Sudoeste 0 943.3 0.6 68
2019-09-30 23:00:00 19.9 9 Oeste 14 Oeste 0 943.3 0.6 62
2019-09-30 22:00:00 22.2 7 Sudoeste 17 Oeste 0 943.1 0.6 56
2019-09-30 21:00:00 22.4 9 Sudoeste 17 Sudoeste 0 942.7 0.5 56
2019-09-30 20:00:00 22.7 5 Noroeste 10 Este 0 942.7 0.4 63
2019-09-30 19:00:00 25.5 5 Nordeste 17 Este 0 942.5 -0.1 46
2019-09-30 18:00:00 27.5 8 Nordeste 21 Este 0 942.2 -1 36
2019-09-30 17:00:00 29.1 12 Este 23 Nordeste 0 942.3 -1.6 29
2019-09-30 16:00:00 30.4 8 Este 18 Este 0 942.6 -2 24
2019-09-30 15:00:00 30.4 9 Este 19 Este 0 943.2 -1.7 23
2019-09-30 14:00:00 30.1 8 Este 17 Nordeste 0 943.9 -1.1 25
2019-09-30 13:00:00 29.2 7 Este 12 Sudeste 0 944.6 -0.2 28
2019-09-30 12:00:00 28 5 Este 8 Este 0 944.9 0.5 26
2019-09-30 11:00:00 25.5 2 Sudeste 5 Este 0 945 0.8 33
2019-09-30 10:00:00 20.5 2 Nordeste 19 Sudoeste 0 944.8 0.8 52
2019-09-30 09:00:00 16.5 15 Oeste 26 Oeste 0 944.4 0.3 53
2019-09-30 08:00:00 13.6 9 Oeste 21 Oeste 0 944.2 0 63
2019-09-30 07:00:00 15.3 16 Oeste 24 Oeste 0 944 -0.6 55
2019-09-30 06:00:00 15.9 15 Oeste 22 Oeste 0 944.1 -0.8 52
2019-09-30 05:00:00 16.2 12 Oeste 21 Oeste 0 944.2 -0.9 50
2019-09-30 04:00:00 16.3 9 Oeste 24 Sudoeste 0 944.6 -0.4 52
2019-09-30 03:00:00 17.2 13 Oeste 21 Sudoeste 0 944.9 -0.2 47
2019-09-30 02:00:00 16.6 9 Oeste 16 Oeste 0 945.1 0 56
2019-09-30 01:00:00 17.7 11 Oeste 26 Oeste 0 945 0.1 61
2019-09-30 00:00:00 19.5 4 Sur 21 Oeste 0 945.1 0.6 60
2019-09-29 23:00:00 20.1 11 Oeste 19 Oeste 0 945.1 1.1 60
2019-09-29 22:00:00 21.8 7 Oeste 14 Oeste 0 944.9 1.2 58
2019-09-29 21:00:00 22.6 7 Oeste 17 Oeste 0 944.5 0.8 60
2019-09-29 20:00:00 22.9 6 Oeste 14 Noroeste 0 944 -0.1 56
2019-09-29 19:00:00 27.1 3 Noroeste 12 Nordeste 0 943.7 -0.7 50
2019-09-29 18:00:00 28.9 3 Nordeste 15 Este 0 943.7 -1.2 30
2019-09-29 17:00:00 29.6 8 Este 18 Sudeste 0 944.1 -1.5 30
2019-09-29 16:00:00 29.6 9 Este 19 Nordeste 0 944.4 -1.5 36
2019-09-29 15:00:00 29.4 9 Este 19 Este 0 944.9 -1.5 40
2019-09-29 14:00:00 28.5 10 Este 17 Este 0 945.6 -0.8 45
2019-09-29 13:00:00 27.7 8 Este 15 Sudeste 0 945.9 -0.3 51
2019-09-29 12:00:00 26.2 7 Este 11 Sudeste 0 946.4 0.4 47
2019-09-29 11:00:00 23.8 5 Este 14 Sudoeste 0 946.4 0.7 47
2019-09-29 10:00:00 19.4 8 Sudoeste 17 Sudoeste 0 946.2 0.6 60
2019-09-29 09:00:00 14.4 4 Noroeste 24 Sudoeste 0 946 0.3 84
2019-09-29 08:00:00 12.9 8 Sudoeste 18 Oeste 0 945.7 -0.2 88
2019-09-29 07:00:00 13.4 6 Sudoeste 13 Sudoeste 0 945.6 -0.6 91
2019-09-29 06:00:00 13.8 5 Oeste 12 Oeste 0 945.7 -0.8 91
2019-09-29 05:00:00 14.5 8 Oeste 14 Oeste 0 945.9 -0.8 91
2019-09-29 04:00:00 14.8 6 Sudoeste 9 Sudoeste 0 946.2 -0.6 91
2019-09-29 03:00:00 14.6 3 Sudoeste 5 Sudoeste 0 946.5 -0.5 91
2019-09-29 02:00:00 15 3 Noroeste 5 Sudoeste 0 946.7 -0.1 90
2019-09-29 01:00:00 15.6 3 Noroeste 6 Oeste 0 946.8 0.2 90
2019-09-29 00:00:00 16.2 3 Noroeste 4 Oeste 0 947 0.8 89
2019-09-28 23:00:00 16.9 3 Noroeste 5 Sudoeste 0 946.8 0.8 87
2019-09-28 22:00:00 18.2 2 Oeste 5 Noroeste 0 946.6 0.6 84
2019-09-28 21:00:00 20.1 4 Norte 9 Nordeste 0 946.2 0.4 78
2019-09-28 20:00:00 22 5 Norte 15 Nordeste 0 946 0.2 71
2019-09-28 19:00:00 24.3 8 Nordeste 19 Nordeste 0 946 0 62
2019-09-28 18:00:00 25.6 8 Nordeste 20 Nordeste 0 945.8 -0.6 56
2019-09-28 17:00:00 26.6 8 Nordeste 25 Este 0 945.8 -1.4 52
2019-09-28 16:00:00 27.5 12 Este 21 Este 0 946 -1.7 47
2019-09-28 15:00:00 28.4 9 Este 19 Este 0 946.4 -1.5 39
2019-09-28 14:00:00 27.8 8 Este 19 Este 0 947.2 -0.7 31
2019-09-28 13:00:00 27.2 9 Este 19 Este 0 947.7 0.4 35
2019-09-28 12:00:00 26.2 6 Este 11 Este 0 947.9 1.4 37
2019-09-28 11:00:00 24.4 3 Nordeste 6 Este 0 947.9 1.9 44
2019-09-28 10:00:00 19.9 2 Norte 14 Oeste 0 947.3 1.5 57
2019-09-28 09:00:00 16.4 10 Oeste 24 Sudoeste 0 946.5 0.8 62
2019-09-28 08:00:00 14.7 14 Oeste 21 Oeste 0 946 0.4 67
2019-09-28 07:00:00 14.9 12 Oeste 18 Oeste 0 945.8 0 72
2019-09-28 06:00:00 14.3 3 Noroeste 13 Sudoeste 0 945.7 -0.6 83
2019-09-28 05:00:00 15 3 Oeste 20 Sudoeste 0 945.6 -0.9 81
2019-09-28 04:00:00 15.9 11 Oeste 17 Oeste 0 945.8 -0.7 78
2019-09-28 03:00:00 15.8 8 Oeste 12 Oeste 0 946.3 -0.1 82
2019-09-28 02:00:00 16.4 4 Sudoeste 10 Sudoeste 0 946.5 0.3 81
2019-09-28 01:00:00 17.3 2 Noroeste 13 Oeste 0 946.5 0.7 80
2019-09-28 00:00:00 19.3 10 Oeste 15 Oeste 0 946.4 1.2 72
2019-09-27 23:00:00 19.9 8 Oeste 15 Oeste 0 946.2 1.6 70
2019-09-27 22:00:00 22.1 8 Oeste 15 Oeste 0 945.8 1.5 65
2019-09-27 21:00:00 21.2 7 Oeste 15 Oeste 0 945.2 1.1 65
2019-09-27 20:00:00 23.1 8 Noroeste 14 Noroeste 0 944.6 0.3 52
2019-09-27 19:00:00 26.8 6 Este 14 Sudeste 0 944.3 -0.2 39
2019-09-27 18:00:00 28 6 Este 16 Este 0 944.1 -0.8 30
2019-09-27 17:00:00 28.8 8 Este 19 Este 0 944.3 -1.2 27
2019-09-27 16:00:00 29 11 Este 20 Este 0 944.5 -1.3 29
2019-09-27 15:00:00 29.4 8 Este 19 Este 0 944.9 -1.4 27
2019-09-27 14:00:00 28.8 8 Este 18 Este 0 945.5 -1 30
2019-09-27 13:00:00 28.5 6 Este 12 Este 0 945.8 -0.6 31
2019-09-27 12:00:00 27.4 5 Este 10 Este 0 946.3 0.2 38
2019-09-27 11:00:00 24.5 4 Oeste 18 Oeste 0 946.5 0.6 51
2019-09-27 10:00:00 20.6 5 Sudoeste 17 Oeste 0 946.4 0.6 57
2019-09-27 09:00:00 16.1 5 Norte 22 Oeste 0 946.1 0.3 79
2019-09-27 08:00:00 14.3 11 Oeste 18 Oeste 0 945.9 0.2 82
2019-09-27 07:00:00 13.7 5 Oeste 13 Sudoeste 0 945.8 -0.1 88
2019-09-27 06:00:00 15 10 Oeste 16 Oeste 0 945.8 -0.6 81
2019-09-27 05:00:00 15.1 6 Oeste 13 Sudoeste 0 945.7 -0.8 87
2019-09-27 04:00:00 14.3 4 Sudoeste 8 Oeste 0 945.9 -0.8 89
2019-09-27 03:00:00 15 3 Sudoeste 6 Oeste 0 946.4 -0.4 88
2019-09-27 02:00:00 16.4 4 Oeste 14 Oeste 0 946.5 -0.1 83
2019-09-27 01:00:00 17.1 9 Oeste 14 Oeste 0 946.7 0.4 84
2019-09-27 00:00:00 17.2 3 Oeste 9 Sudoeste 0 946.8 1.1 84
2019-09-26 23:00:00 19.8 4 Oeste 14 Oeste 0 946.6 1.4 78
2019-09-26 22:00:00 20.1 7 Oeste 12 Oeste 0 946.3 1.4 78
2019-09-26 21:00:00 20 5 Noroeste 13 Sudoeste 0 945.7 1 75
2019-09-26 20:00:00 21.8 4 Noroeste 10 Este 0 945.2 0.3 68
2019-09-26 19:00:00 24.7 4 Este 19 Este 0 944.9 -0.2 54
2019-09-26 18:00:00 25.7 9 Nordeste 21 Este 0 944.7 -0.7 51
2019-09-26 17:00:00 26.4 11 Este 22 Este 0 944.9 -1.2 47
2019-09-26 16:00:00 26.8 10 Este 18 Nordeste 0 945.1 -1.5 47
2019-09-26 15:00:00 27 10 Este 18 Este 0 945.4 -1.4 48
2019-09-26 14:00:00 26.6 7 Este 15 Este 0 946.1 -0.9 44
2019-09-26 13:00:00 25.9 8 Este 17 Nordeste 0 946.6 -0.2 44
2019-09-26 12:00:00 24.7 7 Este 13 Este 0 946.8 0.6 46
2019-09-26 11:00:00 23.1 4 Este 8 Este 0 947 1.2 51
2019-09-26 10:00:00 19.9 5 Sudoeste 16 Oeste 0 946.8 1.3 62
2019-09-26 09:00:00 15.5 9 Oeste 19 Sudoeste 0 946.2 0.9 72
2019-09-26 08:00:00 13.7 9 Oeste 18 Oeste 0 945.8 0.7 78
2019-09-26 07:00:00 14.4 10 Oeste 20 Sudoeste 0 945.5 0.6 75
2019-09-26 06:00:00 14 9 Oeste 19 Oeste 0 945.3 0.3 79
2019-09-26 05:00:00 14.2 6 Oeste 17 Oeste 0 945.1 -0.1 79
2019-09-26 04:00:00 14.7 5 Sudoeste 19 Sudoeste 0 944.9 -0.4 80
2019-09-26 03:00:00 15.8 12 Oeste 18 Sudoeste 0 945 -0.3 78
2019-09-26 02:00:00 15.4 7 Oeste 11 Sudoeste 0 945.2 0.1 87
2019-09-26 01:00:00 15.4 4 Oeste 6 Oeste 0 945.3 0.7 86
2019-09-26 00:00:00 16.5 3 Noroeste 6 Noroeste 0 945.3 1.7 82
2019-09-25 23:00:00 18.2 4 Norte 9 Nordeste 0 945.1 2.2 73
2019-09-25 22:00:00 20.1 5 Nordeste 16 Nordeste 0 944.6 2.3 63
2019-09-25 21:00:00 21.6 7 Oeste 16 Oeste 0 943.6 1.6 52
2019-09-25 20:00:00 22.8 5 Noroeste 10 Sudeste 0 942.9 1 57
2019-09-25 19:00:00 26.1 8 Sudeste 18 Este 0 942.3 0.3 44
2019-09-25 18:00:00 27.3 8 Este 23 Este 0 942 -0.5 40
2019-09-25 17:00:00 27.9 11 Nordeste 21 Nordeste 0 941.9 -1.2 37
2019-09-25 16:00:00 28.7 10 Este 22 Este 0 942 -1.8 38
2019-09-25 15:00:00 29 6 Este 17 Este 0 942.5 -1.9 34
2019-09-25 14:00:00 27.8 8 Este 17 Este 0 943.1 -1.2 35
2019-09-25 13:00:00 26.5 5 Nordeste 13 Nordeste 0 943.8 -0.2 36
2019-09-25 12:00:00 25.6 6 Este 12 Sudeste 0 944.4 0.7 38
2019-09-25 11:00:00 24.3 4 Sudeste 9 Sudoeste 0 944.3 0.9 41
2019-09-25 10:00:00 20.3 7 Sudoeste 17 Sudoeste 0 944 0.9 54
2019-09-25 09:00:00 16.5 8 Oeste 18 Oeste 0 943.7 0.7 66
2019-09-25 08:00:00 12.7 5 Oeste 9 Oeste 0 943.4 0.4 80
2019-09-25 07:00:00 15.1 6 Sudoeste 19 Oeste 0 943.1 -0.1 65
2019-09-25 06:00:00 16 10 Oeste 21 Sudoeste 0 943 -0.5 61
2019-09-25 05:00:00 16.4 12 Oeste 20 Oeste 0 943 -0.5 60
2019-09-25 04:00:00 15.2 5 Sur 15 Sudoeste 0 943.2 -0.6 68
2019-09-25 03:00:00 17 7 Oeste 20 Oeste 0 943.5 -0.6 60
2019-09-25 02:00:00 18.6 10 Oeste 23 Sudoeste 0 943.5 -0.7 53
2019-09-25 01:00:00 18.8 15 Oeste 22 Oeste 0 943.8 -0.1 52
2019-09-25 00:00:00 19 10 Oeste 17 Oeste 0 944.1 0.5 52
2019-09-24 23:00:00 19 5 Sudoeste 13 Oeste 0 944.2 1 60
2019-09-24 22:00:00 21 4 Oeste 15 Oeste 0 943.9 1 54
2019-09-24 21:00:00 22.2 10 Oeste 16 Oeste 0 943.6 0.8 51
2019-09-24 20:00:00 23.3 10 Noroeste 13 Noroeste 0 943.2 -0.1 45
2019-09-24 19:00:00 27.9 4 Este 14 Este 0 942.9 -0.9 34
2019-09-24 18:00:00 29 8 Este 15 Este 0 942.8 -1.7 28
2019-09-24 17:00:00 29.9 8 Este 21 Nordeste 0 943.3 -2.3 28
2019-09-24 16:00:00 30 5 Este 14 Sudeste 0 943.8 -2.6 27
2019-09-24 15:00:00 29.4 5 Este 13 Este 0 944.5 -2.3 28
2019-09-24 14:00:00 28.5 3 Este 10 Sudeste 0 945.6 -1.2 30
2019-09-24 13:00:00 27.1 3 Norte 10 Sudeste 0 946.4 -0.1 29
2019-09-24 12:00:00 25.7 4 Sudeste 9 Sudeste 0 946.8 0.6 34
2019-09-24 11:00:00 23.1 4 Sudoeste 15 Oeste 0 946.8 1 48
2019-09-24 10:00:00 18.9 10 Oeste 21 Oeste 0 946.5 0.6 58
2019-09-24 09:00:00 15.5 10 Oeste 21 Oeste 0 946.2 0.5 68
2019-09-24 08:00:00 13.5 13 Oeste 24 Oeste 0 945.8 -0.1 75
2019-09-24 07:00:00 13.7 16 Oeste 22 Oeste 0 945.9 -0.2 75
2019-09-24 06:00:00 14 11 Oeste 19 Oeste 0 945.7 -0.9 76
2019-09-24 05:00:00 14.2 10 Oeste 20 Oeste 0 945.9 -1.2 78
2019-09-24 04:00:00 14.8 14 Oeste 19 Oeste 0 946.1 -1 77
2019-09-24 03:00:00 15.1 10 Sudoeste 18 Oeste 0 946.6 -0.8 79
2019-09-24 02:00:00 15.9 12 Oeste 21 Sudoeste 0 947.1 -0.3 76
2019-09-24 01:00:00 16.7 14 Oeste 19 Oeste 0 947.1 -0.1 75
2019-09-24 00:00:00 17.1 6 Sudoeste 11 Oeste 0 947.4 0.7 76
2019-09-23 23:00:00 17.8 7 Oeste 14 Oeste 0 947.4 1.4 73
2019-09-23 22:00:00 17.9 4 Noroeste 12 Noroeste 0 947.2 1.3 71
2019-09-23 21:00:00 19.7 7 Noroeste 12 Noroeste 0 946.7 1.1 64
2019-09-23 20:00:00 20.2 4 Noroeste 6 Noroeste 0 946 0.5 67
2019-09-23 19:00:00 23 3 Este 14 Este 0 945.9 0.4 57
2019-09-23 18:00:00 23.9 5 Norte 19 Nordeste 0 945.6 -0.2 49
2019-09-23 17:00:00 24.4 7 Nordeste 15 Nordeste 0 945.5 -1 47
2019-09-23 16:00:00 25.6 8 Este 14 Sudeste 0 945.5 -1.5 42
2019-09-23 15:00:00 25.3 6 Sudeste 14 Este 0 945.8 -1.7 42
2019-09-23 14:00:00 24.1 8 Sudeste 16 Este 0 946.5 -1.4 46
2019-09-23 13:00:00 23.3 7 Sudeste 18 Sudeste 0 947 -0.4 50
2019-09-23 12:00:00 21.8 6 Este 12 Sudeste 0 947.5 0.4 52
2019-09-23 11:00:00 20.6 5 Sur 10 Sudeste 0 947.9 1.4 55
2019-09-23 10:00:00 17.5 4 Sudoeste 10 Oeste 0 947.4 1.6 67
2019-09-23 09:00:00 13.6 7 Sudoeste 12 Oeste 0 947.1 1.7 87
2019-09-23 08:00:00 12 6 Oeste 10 Oeste 0 946.5 1.7 90
2019-09-23 07:00:00 12 4 Oeste 7 Oeste 0 945.8 0.9 90
2019-09-23 06:00:00 12.4 0 Calma 8 Oeste 0 945.4 0.9 89
2019-09-23 05:00:00 12.7 4 Oeste 8 Oeste 0 944.8 0.3 89
2019-09-23 04:00:00 13.1 0 Calma 5 Oeste 0 944.9 0.6 88
2019-09-23 03:00:00 13.6 3 Noroeste 8 Oeste 0 944.5 0.4 86
2019-09-23 02:00:00 14.6 0 Calma 11 Oeste 0 944.5 0.8 82
2019-09-23 01:00:00 16.3 7 Oeste 11 Oeste 0 944.3 1.2 74
2019-09-23 00:00:00 16.5 5 Noroeste 13 Sudoeste 0 944.1 1.8 77
2019-09-22 23:00:00 17.6 3 Noroeste 10 Oeste 0 943.7 2.3 73
2019-09-22 22:00:00 18.8 6 Noroeste 12 Noroeste 0 943.1 2 75
2019-09-22 21:00:00 19.8 2 Norte 9 Noroeste 0 942.3 1.5 76
2019-09-22 20:00:00 22 5 Noroeste 9 Noroeste 0 941.4 0.8 73
2019-09-22 19:00:00 24.3 0 Calma 10 Sudeste 0 941.1 0.4 66
2019-09-22 18:00:00 25.3 5 Este 16 Este 0 940.8 0.2 53
2019-09-22 17:00:00 25.7 10 Este 17 Nordeste 0 940.6 -0.4 53
2019-09-22 16:00:00 25.7 6 Nordeste 19 Nordeste 0 940.7 -0.8 53
2019-09-22 15:00:00 27.3 8 Nordeste 18 Nordeste 0 940.6 -1.2 42
2019-09-22 14:00:00 28 6 Sudeste 14 Este 0 941 -0.8 40
2019-09-22 13:00:00 26.8 6 Sudeste 14 Sudoeste 0 941.5 -0.2 40
2019-09-22 12:00:00 24.8 3 Noroeste 13 Sur 0 941.8 0.5 50
2019-09-22 11:00:00 23.2 8 Sudoeste 19 Sur 0 941.8 0.9 57
2019-09-22 10:00:00 20.7 12 Sudoeste 17 Sudoeste 0 941.7 1 67
2019-09-22 09:00:00 17.4 9 Oeste 15 Oeste 0 941.3 0.9 83
2019-09-22 08:00:00 15.8 2 Oeste 10 Oeste 0 940.9 0.8 89
2019-09-22 07:00:00 16.4 4 Noroeste 8 Noroeste 0 940.7 0.3 88
2019-09-22 06:00:00 17.5 5 Noroeste 9 Noroeste 0 940.4 -0.4 85
2019-09-22 05:00:00 18.3 5 Oeste 12 Oeste 0 940.1 -0.9 82
2019-09-22 04:00:00 18 4 Oeste 8 Noroeste 0 940.4 -0.5 86
2019-09-22 03:00:00 19 3 Sudoeste 15 Oeste 0 940.8 -0.5 84
2019-09-22 02:00:00 19.5 6 Sudoeste 11 Oeste 0 941 -0.2 83
2019-09-22 01:00:00 19.8 6 Oeste 14 Oeste 0 940.9 -0.1 84
2019-09-22 00:00:00 20.1 9 Oeste 15 Oeste 0 941.3 0.9 83